Aviation Digital Data Service (ADDS)

Output produced by TAFs form (0636 UTC 24 November 2014)
found at http://www.aviationweather.gov/adds/tafs/
 
KDEN 240553Z 26008KT 10SM FEW090 SCT120 SCT150 M03/M12 A2987 RMK AO2 SLP114 T10281122 10006 21028 56003
KDEN 240539Z 2406/2512 26008KT P6SM SCT110 BKN150 
     FM240800 23010KT P6SM FEW110 SCT150 BKN200 
     FM241700 30012G20KT P6SM FEW070 SCT100 BKN220 
     FM242000 33020G30KT P6SM VCSH SCT070 BKN090 BKN180 
     FM250100 32014KT P6SM FEW070 BKN110